createdAt,value
2022-09-28T00:00:01.131Z,1003.19
2022-09-28T00:10:00.172Z,1003.17
2022-09-28T00:20:00.181Z,1003.20
2022-09-28T00:30:00.177Z,1003.16
2022-09-28T00:40:00.153Z,1003.10
2022-09-28T00:50:00.157Z,1003.06
2022-09-28T01:00:00.152Z,1003.00
2022-09-28T01:10:00.143Z,1002.97
2022-09-28T01:20:00.157Z,1003.05
2022-09-28T01:30:00.134Z,1002.89
2022-09-28T01:40:00.393Z,1002.77
2022-09-28T01:50:01.437Z,1002.77
2022-09-28T02:00:00.179Z,1002.66
2022-09-28T02:10:00.145Z,1002.69
2022-09-28T02:20:00.168Z,1002.70
2022-09-28T02:30:00.135Z,1002.64
2022-09-28T02:40:00.180Z,1002.55
2022-09-28T02:50:01.268Z,1002.57
2022-09-28T03:00:00.959Z,1002.52
2022-09-28T03:10:00.223Z,1002.44
2022-09-28T03:20:00.195Z,1002.37
2022-09-28T03:30:00.150Z,1002.28
2022-09-28T03:40:00.204Z,1002.27
2022-09-28T03:50:00.171Z,1002.24
2022-09-28T04:00:00.196Z,1002.23
2022-09-28T04:10:00.154Z,1002.11
2022-09-28T04:20:00.172Z,1002.06
2022-09-28T04:30:00.161Z,1002.08
2022-09-28T04:40:01.418Z,1002.16
2022-09-28T04:50:00.179Z,1002.03
2022-09-28T05:00:00.187Z,1002.13
2022-09-28T05:10:00.154Z,1002.20
2022-09-28T05:20:00.142Z,1002.17
2022-09-28T05:30:00.148Z,1002.18
2022-09-28T05:40:00.164Z,1002.14
2022-09-28T05:50:01.456Z,1002.09
2022-09-28T06:00:00.186Z,1001.92
2022-09-28T06:10:00.124Z,1001.73
2022-09-28T06:20:00.230Z,1001.64
2022-09-28T06:30:00.148Z,1001.58
2022-09-28T06:40:00.171Z,1001.62
2022-09-28T06:50:00.151Z,1001.58
2022-09-28T07:00:00.184Z,1001.44
2022-09-28T07:10:00.151Z,1001.38
2022-09-28T07:20:08.140Z,1001.48
2022-09-28T07:30:00.194Z,1001.40
2022-09-28T07:40:00.155Z,1001.35
2022-09-28T07:50:00.171Z,1001.36
2022-09-28T08:00:00.157Z,1001.34
2022-09-28T08:10:00.149Z,1001.29
2022-09-28T08:20:00.675Z,1001.35
2022-09-28T08:30:00.167Z,1001.40
2022-09-28T08:40:00.159Z,1001.47
2022-09-28T08:50:00.388Z,1001.48
2022-09-28T09:00:00.188Z,1001.53
2022-09-28T09:10:00.155Z,1001.51
2022-09-28T09:20:00.175Z,1001.45
2022-09-28T09:30:00.150Z,1001.44
2022-09-28T09:40:01.250Z,1001.34
2022-09-28T09:50:02.663Z,1001.28
2022-09-28T10:00:00.161Z,1001.28
2022-09-28T10:10:00.150Z,1001.28
2022-09-28T10:20:00.218Z,1001.33
2022-09-28T10:30:00.165Z,1001.38
2022-09-28T10:40:00.164Z,1001.40
2022-09-28T10:50:01.950Z,1001.38
2022-09-28T11:00:00.169Z,1001.51
2022-09-28T11:10:00.197Z,1001.53
2022-09-28T11:20:00.154Z,1001.55
2022-09-28T11:30:00.157Z,1001.59
2022-09-28T11:40:00.175Z,1001.63
2022-09-28T11:50:00.142Z,1001.63
2022-09-28T12:00:00.207Z,1001.62
2022-09-28T12:10:00.175Z,1001.68
2022-09-28T12:20:00.156Z,1001.68
2022-09-28T12:30:00.149Z,1001.62
2022-09-28T12:40:00.534Z,1001.59
2022-09-28T13:00:00.179Z,1001.60
2022-09-28T13:10:00.279Z,1001.62
2022-09-28T13:20:00.326Z,1001.64
2022-09-28T13:30:00.744Z,1001.66
2022-09-28T13:40:00.223Z,1001.62
2022-09-28T13:50:00.168Z,1001.74
2022-09-28T14:00:00.164Z,1001.71
2022-09-28T14:10:00.154Z,1001.72
2022-09-28T14:20:00.138Z,1001.84
2022-09-28T14:30:00.170Z,1001.82
2022-09-28T14:40:00.187Z,1001.92
2022-09-28T14:50:00.150Z,1002.07
2022-09-28T15:00:00.183Z,1002.14
2022-09-28T15:10:01.304Z,1002.17
2022-09-28T15:20:00.168Z,1002.22
2022-09-28T15:30:01.520Z,1002.29
2022-09-28T15:40:01.861Z,1002.33
2022-09-28T15:50:00.169Z,1002.41
2022-09-28T16:00:00.152Z,1002.50
2022-09-28T16:10:00.161Z,1002.62
2022-09-28T16:20:00.210Z,1002.73
2022-09-28T16:30:00.151Z,1002.82
2022-09-28T16:40:00.280Z,1003.00
2022-09-28T16:50:00.218Z,1003.10
2022-09-28T17:00:00.254Z,1003.22
2022-09-28T17:10:01.459Z,1003.33
2022-09-28T17:20:00.195Z,1003.35
2022-09-28T17:30:00.136Z,1003.43
2022-09-28T17:40:00.189Z,1003.53
2022-09-28T17:50:00.165Z,1003.65
2022-09-28T18:00:00.152Z,1003.67
2022-09-28T18:10:00.141Z,1003.74
2022-09-28T18:20:02.413Z,1003.84
2022-09-28T18:30:00.178Z,1003.98
2022-09-28T18:40:00.384Z,1004.06
2022-09-28T18:50:00.171Z,1004.20
2022-09-28T19:00:00.182Z,1004.33
2022-09-28T19:10:00.190Z,1004.43
2022-09-28T19:20:00.174Z,1004.41
2022-09-28T19:30:00.149Z,1004.48
2022-09-28T19:40:00.190Z,1004.56
2022-09-28T19:50:00.153Z,1004.59
2022-09-28T20:00:02.674Z,1004.67
2022-09-28T20:10:00.152Z,1004.77
2022-09-28T20:20:00.201Z,1004.88
2022-09-28T20:30:01.858Z,1004.97
2022-09-28T20:40:00.163Z,1005.09
2022-09-28T20:50:00.132Z,1005.25
2022-09-28T21:00:00.147Z,1005.44
2022-09-28T21:10:00.152Z,1005.52
2022-09-28T21:20:00.167Z,1005.63
2022-09-28T21:30:00.127Z,1005.67
2022-09-28T21:40:00.168Z,1005.70
2022-09-28T21:50:00.135Z,1005.72
2022-09-28T22:00:00.155Z,1005.78
2022-09-28T22:10:00.157Z,1005.73
2022-09-28T22:20:00.116Z,1005.67
2022-09-28T22:30:00.133Z,1005.71
2022-09-28T22:40:00.173Z,1005.77
2022-09-28T22:50:00.151Z,1005.87
2022-09-28T23:00:00.161Z,1006.07
2022-09-28T23:10:00.175Z,1006.02
2022-09-28T23:20:00.143Z,1006.02
2022-09-28T23:30:00.129Z,1005.97
2022-09-28T23:40:00.178Z,1006.00
2022-09-28T23:50:00.152Z,1006.08
